createdAt,value
2023-03-22T00:01:31.065Z,8.37
2023-03-22T00:03:59.334Z,8.26
2023-03-22T00:06:27.268Z,8.39
2023-03-22T00:08:56.000Z,8.36
2023-03-22T00:11:25.771Z,8.40
2023-03-22T00:13:55.232Z,8.38
2023-03-22T00:16:23.761Z,8.42
2023-03-22T00:18:51.556Z,8.37
2023-03-22T00:21:19.839Z,8.23
2023-03-22T00:23:47.537Z,7.94
2023-03-22T00:26:15.668Z,7.73
2023-03-22T00:28:44.144Z,7.75
2023-03-22T00:31:13.213Z,7.71
2023-03-22T00:33:41.330Z,7.91
2023-03-22T00:36:11.730Z,7.60
2023-03-22T00:38:42.996Z,7.28
2023-03-22T00:41:13.495Z,7.35
2023-03-22T00:43:41.527Z,7.65
2023-03-22T00:46:09.910Z,7.38
2023-03-22T00:48:39.543Z,7.27
2023-03-22T00:51:07.907Z,7.34
2023-03-22T00:53:36.486Z,7.62
2023-03-22T00:56:04.985Z,7.49
2023-03-22T00:58:32.859Z,7.44
2023-03-22T01:01:00.776Z,7.50
2023-03-22T01:03:28.561Z,7.52
2023-03-22T01:05:57.916Z,7.54
2023-03-22T01:08:25.902Z,7.55
2023-03-22T01:10:53.610Z,7.78
2023-03-22T01:13:21.467Z,8.03
2023-03-22T01:15:51.311Z,7.99
2023-03-22T01:18:19.745Z,7.84
2023-03-22T01:20:47.656Z,7.64
2023-03-22T01:23:16.725Z,7.59
2023-03-22T01:25:44.571Z,7.58
2023-03-22T01:28:12.216Z,7.51
2023-03-22T01:30:41.032Z,7.59
2023-03-22T01:33:09.664Z,7.59
2023-03-22T01:35:37.824Z,7.52
2023-03-22T01:38:06.050Z,7.57
2023-03-22T01:40:35.328Z,7.47
2023-03-22T01:43:03.945Z,7.42
2023-03-22T01:45:43.634Z,7.25
2023-03-22T01:48:18.302Z,7.06
2023-03-22T01:50:56.009Z,7.13
2023-03-22T01:53:26.413Z,7.02
2023-03-22T01:55:58.687Z,7.05
2023-03-22T01:58:26.874Z,7.07
2023-03-22T02:00:55.151Z,7.25
2023-03-22T02:03:31.474Z,7.46
2023-03-22T02:05:59.148Z,7.54
2023-03-22T02:08:27.059Z,7.63
2023-03-22T02:10:56.156Z,7.60
2023-03-22T02:13:39.481Z,7.84
2023-03-22T02:16:23.656Z,8.05
2023-03-22T02:19:05.488Z,8.09
2023-03-22T02:22:10.906Z,7.90
2023-03-22T02:25:01.978Z,7.62
2023-03-22T02:27:50.285Z,7.58
2023-03-22T02:30:50.419Z,7.50
2023-03-22T02:33:41.533Z,7.39
2023-03-22T02:36:42.869Z,7.46
2023-03-22T02:39:33.285Z,7.59
2023-03-22T02:42:20.774Z,7.36
2023-03-22T02:44:57.229Z,7.41
2023-03-22T02:47:34.265Z,7.29
2023-03-22T02:50:09.873Z,7.26
2023-03-22T02:52:41.847Z,7.22
2023-03-22T02:55:17.142Z,7.29
2023-03-22T02:57:49.694Z,7.28
2023-03-22T03:00:20.990Z,7.26
2023-03-22T03:02:51.860Z,7.28
2023-03-22T03:05:21.842Z,7.36
2023-03-22T03:07:53.415Z,7.26
2023-03-22T03:10:24.141Z,7.18
2023-03-22T03:12:51.837Z,7.27
2023-03-22T03:15:22.005Z,7.16
2023-03-22T03:18:11.578Z,7.22
2023-03-22T03:20:52.157Z,7.34
2023-03-22T03:23:31.171Z,7.33
2023-03-22T03:26:07.265Z,7.33
2023-03-22T03:28:39.830Z,7.25
2023-03-22T03:31:19.654Z,7.32
2023-03-22T03:33:56.881Z,7.49
2023-03-22T03:36:27.897Z,7.46
2023-03-22T03:38:57.870Z,7.54
2023-03-22T03:41:30.002Z,7.55
2023-03-22T03:43:59.028Z,7.61
2023-03-22T03:46:26.746Z,7.60
2023-03-22T03:48:56.686Z,7.62
2023-03-22T03:51:24.422Z,7.69
2023-03-22T03:53:52.132Z,7.74
2023-03-22T03:56:19.821Z,7.70
2023-03-22T03:58:49.105Z,7.76
2023-03-22T04:01:19.612Z,7.68
2023-03-22T04:03:50.501Z,7.78
2023-03-22T04:06:18.226Z,7.88
2023-03-22T04:08:46.506Z,7.87
2023-03-22T04:11:14.298Z,7.87
2023-03-22T04:13:42.078Z,7.93
2023-03-22T04:16:11.546Z,7.87
2023-03-22T04:18:39.319Z,7.82
2023-03-22T04:21:07.690Z,7.78
2023-03-22T04:23:35.447Z,7.77
2023-03-22T04:26:03.846Z,7.76
2023-03-22T04:28:33.869Z,7.83
2023-03-22T04:31:03.936Z,8.09
2023-03-22T04:33:39.176Z,8.05
2023-03-22T04:36:10.217Z,7.95
2023-03-22T04:38:39.537Z,7.90
2023-03-22T04:41:07.802Z,7.93
2023-03-22T04:43:35.590Z,7.90
2023-03-22T04:46:03.442Z,7.91
2023-03-22T04:48:31.342Z,7.85
2023-03-22T04:51:04.011Z,7.77
2023-03-22T04:53:32.082Z,7.73
2023-03-22T04:56:00.051Z,7.65
2023-03-22T04:58:28.431Z,7.60
2023-03-22T05:00:56.193Z,7.54
2023-03-22T05:03:24.172Z,7.60
2023-03-22T05:05:53.598Z,7.60
2023-03-22T05:08:24.970Z,7.57
2023-03-22T05:10:53.619Z,7.68
2023-03-22T05:13:21.928Z,7.70
2023-03-22T05:15:50.225Z,8.09
2023-03-22T05:18:20.529Z,8.02
2023-03-22T05:20:49.130Z,8.02
2023-03-22T05:23:19.259Z,8.09
2023-03-22T05:25:49.364Z,8.32
2023-03-22T05:28:19.465Z,8.61
2023-03-22T05:30:47.244Z,8.70
2023-03-22T05:33:16.762Z,9.01
2023-03-22T05:35:44.855Z,9.22
2023-03-22T05:38:12.548Z,9.44
2023-03-22T05:40:40.978Z,9.57
2023-03-22T05:43:10.814Z,9.60
2023-03-22T05:45:38.544Z,9.67
2023-03-22T05:48:06.948Z,9.97
2023-03-22T05:50:35.549Z,9.98
2023-03-22T05:53:03.925Z,9.98
2023-03-22T05:55:32.208Z,10.10
2023-03-22T05:58:01.306Z,10.23
2023-03-22T06:00:32.018Z,10.32
2023-03-22T06:03:03.686Z,10.45
2023-03-22T06:05:32.702Z,10.71
2023-03-22T06:08:00.886Z,10.90
2023-03-22T06:10:28.771Z,10.91
2023-03-22T06:12:56.568Z,10.86
2023-03-22T06:15:24.443Z,10.78
2023-03-22T06:17:53.514Z,10.73
2023-03-22T06:20:21.269Z,10.74
2023-03-22T06:22:49.040Z,10.79
2023-03-22T06:25:17.808Z,10.78
2023-03-22T06:27:45.563Z,10.92
2023-03-22T06:30:13.778Z,11.01
2023-03-22T06:32:41.539Z,11.20
2023-03-22T06:35:11.117Z,11.34
2023-03-22T06:37:38.916Z,11.43
2023-03-22T06:40:08.407Z,11.53
2023-03-22T06:42:36.988Z,11.70
2023-03-22T06:45:06.114Z,11.95
2023-03-22T06:47:33.781Z,12.03
2023-03-22T06:50:01.475Z,12.20
2023-03-22T06:52:30.547Z,12.59
2023-03-22T06:54:58.211Z,12.57
2023-03-22T06:57:26.317Z,12.56
2023-03-22T06:59:54.001Z,12.56
2023-03-22T07:02:21.822Z,12.24
2023-03-22T07:04:49.471Z,12.27
2023-03-22T07:07:17.386Z,12.10
2023-03-22T07:09:46.383Z,12.33
2023-03-22T07:12:14.500Z,12.50
2023-03-22T07:14:42.579Z,12.48
2023-03-22T07:17:12.540Z,12.35
2023-03-22T07:19:41.845Z,12.59
2023-03-22T07:22:09.858Z,12.90
2023-03-22T07:24:44.750Z,13.08
2023-03-22T07:27:19.292Z,13.40
2023-03-22T07:29:46.986Z,13.26
2023-03-22T07:32:14.820Z,13.41
2023-03-22T07:34:42.724Z,13.49
2023-03-22T07:37:10.815Z,13.51
2023-03-22T07:39:38.651Z,13.59
2023-03-22T07:42:06.909Z,13.99
2023-03-22T07:44:36.252Z,14.04
2023-03-22T07:47:04.059Z,13.78
2023-03-22T07:49:32.292Z,13.89
2023-03-22T07:52:00.476Z,14.17
2023-03-22T07:54:33.763Z,13.91
2023-03-22T07:57:03.016Z,13.85
2023-03-22T07:59:31.399Z,14.03
2023-03-22T08:02:00.830Z,14.54
2023-03-22T08:04:30.859Z,14.57
2023-03-22T08:07:00.046Z,14.91
2023-03-22T08:09:28.290Z,14.96
2023-03-22T08:11:56.194Z,15.23
2023-03-22T08:14:35.450Z,14.72
2023-03-22T08:17:05.807Z,14.69
2023-03-22T08:19:34.192Z,14.42
2023-03-22T08:22:02.313Z,15.27
2023-03-22T08:24:30.278Z,15.55
2023-03-22T08:26:58.032Z,15.33
2023-03-22T08:29:25.777Z,15.19
2023-03-22T08:31:54.125Z,15.69
2023-03-22T08:34:23.268Z,15.54
2023-03-22T08:36:51.246Z,15.02
2023-03-22T08:39:19.107Z,14.91
2023-03-22T08:41:46.872Z,14.71
2023-03-22T08:44:14.777Z,14.44
2023-03-22T08:46:42.747Z,14.25
2023-03-22T08:49:11.020Z,14.14
2023-03-22T08:51:40.949Z,14.18
2023-03-22T08:54:08.919Z,14.07
2023-03-22T08:56:38.196Z,14.34
2023-03-22T08:59:06.864Z,14.85
2023-03-22T09:01:34.807Z,14.65
2023-03-22T09:04:03.120Z,15.14
2023-03-22T09:06:31.341Z,15.47
2023-03-22T09:09:00.653Z,15.13
2023-03-22T09:11:29.007Z,15.01
2023-03-22T09:13:56.677Z,15.16
2023-03-22T09:16:24.685Z,15.20
2023-03-22T09:18:52.407Z,15.41
2023-03-22T09:21:21.794Z,14.87
2023-03-22T09:23:50.313Z,15.27
2023-03-22T09:26:19.752Z,15.36
2023-03-22T09:28:47.399Z,14.91
2023-03-22T09:31:15.407Z,14.89
2023-03-22T09:33:43.184Z,15.11
2023-03-22T09:36:12.602Z,14.96
2023-03-22T09:38:41.333Z,15.51
2023-03-22T09:41:15.872Z,15.04
2023-03-22T09:43:48.823Z,15.18
2023-03-22T09:46:19.362Z,15.55
2023-03-22T09:48:49.819Z,16.12
2023-03-22T09:51:32.018Z,16.79
2023-03-22T09:54:00.148Z,16.57
2023-03-22T09:56:30.527Z,16.79
2023-03-22T09:59:07.469Z,16.35
2023-03-22T10:01:47.333Z,16.05
2023-03-22T10:04:35.674Z,15.67
2023-03-22T10:07:10.822Z,15.96
2023-03-22T10:09:44.854Z,15.80
2023-03-22T10:12:21.439Z,16.03
2023-03-22T10:14:59.029Z,16.15
2023-03-22T10:17:29.832Z,16.14
2023-03-22T10:20:01.803Z,16.80
2023-03-22T10:22:34.451Z,17.29
2023-03-22T10:25:03.857Z,18.16
2023-03-22T10:27:32.919Z,17.50
2023-03-22T10:30:07.959Z,17.90
2023-03-22T10:32:54.943Z,17.41
2023-03-22T10:35:25.513Z,17.05
2023-03-22T10:37:55.906Z,17.12
2023-03-22T10:40:27.240Z,16.82
2023-03-22T10:42:57.646Z,17.05
2023-03-22T10:45:28.862Z,17.67
2023-03-22T10:48:01.881Z,17.69
2023-03-22T10:50:33.060Z,18.04
2023-03-22T10:53:05.752Z,17.44
2023-03-22T10:55:33.622Z,18.00
2023-03-22T10:58:13.434Z,18.29
2023-03-22T11:00:47.168Z,17.81
2023-03-22T11:03:31.676Z,18.40
2023-03-22T11:06:04.324Z,18.98
2023-03-22T11:08:40.065Z,19.29
2023-03-22T11:11:15.591Z,19.28
2023-03-22T11:13:45.380Z,18.70
2023-03-22T11:16:18.538Z,18.64
2023-03-22T11:18:46.348Z,18.11
2023-03-22T11:21:17.620Z,17.41
2023-03-22T11:23:53.920Z,17.63
2023-03-22T11:26:28.526Z,17.61
2023-03-22T11:29:03.003Z,17.53
2023-03-22T11:31:50.155Z,17.98
2023-03-22T11:34:20.346Z,18.38
2023-03-22T11:36:54.711Z,18.51
2023-03-22T11:39:22.928Z,18.31
2023-03-22T11:41:50.608Z,18.48
2023-03-22T11:44:21.615Z,18.24
2023-03-22T11:46:58.214Z,18.81
2023-03-22T11:49:32.831Z,18.76
2023-03-22T11:52:09.886Z,18.94
2023-03-22T11:54:40.153Z,18.88
2023-03-22T11:57:14.463Z,19.03
2023-03-22T11:59:48.379Z,18.77
2023-03-22T12:02:23.540Z,19.17
2023-03-22T12:04:57.259Z,19.12
2023-03-22T12:07:26.534Z,19.58
2023-03-22T12:10:00.269Z,20.18
2023-03-22T12:12:32.004Z,19.55
2023-03-22T12:15:03.605Z,20.03
2023-03-22T12:17:38.538Z,19.61
2023-03-22T12:20:17.344Z,19.87
2023-03-22T12:22:51.323Z,20.02
2023-03-22T12:25:24.254Z,20.00
2023-03-22T12:27:55.596Z,19.26
2023-03-22T12:30:26.546Z,19.28
2023-03-22T12:33:03.701Z,18.99
2023-03-22T12:35:34.446Z,18.49
2023-03-22T12:38:09.798Z,18.49
2023-03-22T12:40:42.052Z,18.39
2023-03-22T12:43:16.986Z,18.29
2023-03-22T12:45:49.528Z,18.50
2023-03-22T12:48:21.871Z,18.83
2023-03-22T12:50:54.081Z,18.63
2023-03-22T12:53:23.878Z,18.79
2023-03-22T12:55:52.436Z,18.64
2023-03-22T12:58:23.310Z,18.64
2023-03-22T13:00:56.092Z,18.62
2023-03-22T13:03:40.312Z,18.81
2023-03-22T13:06:34.501Z,18.67
2023-03-22T13:09:15.548Z,18.18
2023-03-22T13:11:44.348Z,18.34
2023-03-22T13:14:49.640Z,18.57
2023-03-22T13:17:38.892Z,18.65
2023-03-22T13:20:27.834Z,18.65
2023-03-22T13:23:25.820Z,18.55
2023-03-22T13:26:03.387Z,18.56
2023-03-22T13:28:37.165Z,18.44
2023-03-22T13:31:05.828Z,18.49
2023-03-22T13:33:36.480Z,18.50
2023-03-22T13:36:08.488Z,18.69
2023-03-22T13:38:42.374Z,19.09
2023-03-22T13:41:21.926Z,19.33
2023-03-22T13:43:51.491Z,19.84
2023-03-22T13:46:46.802Z,19.59
2023-03-22T13:49:26.849Z,19.06
2023-03-22T13:51:57.243Z,18.97
2023-03-22T13:54:36.462Z,19.40
2023-03-22T13:57:04.489Z,19.18
2023-03-22T14:00:08.909Z,19.33
2023-03-22T14:02:43.048Z,19.82
2023-03-22T14:05:17.596Z,19.78
2023-03-22T14:07:49.916Z,19.75
2023-03-22T14:10:22.571Z,19.82
2023-03-22T14:12:53.072Z,19.56
2023-03-22T14:15:24.632Z,19.23
2023-03-22T14:18:00.641Z,19.26
2023-03-22T14:20:33.617Z,19.92
